sensor_id;sensor_type;location;lat;lon;timestamp;pressure;altitude;pressure_sealevel;temperature;humidity
56831;BME280;42713;42.676;23.352;2023-04-28T00:00:44;94998.00;;;7.28;46.30
56831;BME280;42713;42.676;23.352;2023-04-28T00:03:11;94995.41;;;7.28;45.83
56831;BME280;42713;42.676;23.352;2023-04-28T00:05:37;94994.66;;;7.21;46.40
56831;BME280;42713;42.676;23.352;2023-04-28T00:08:03;95003.09;;;7.16;46.47
56831;BME280;42713;42.676;23.352;2023-04-28T00:10:30;94993.91;;;7.13;46.89
56831;BME280;42713;42.676;23.352;2023-04-28T00:12:56;94992.59;;;7.04;47.10
56831;BME280;42713;42.676;23.352;2023-04-28T00:15:21;94990.34;;;7.08;46.76
56831;BME280;42713;42.676;23.352;2023-04-28T00:17:47;94993.22;;;6.99;46.50
56831;BME280;42713;42.676;23.352;2023-04-28T00:20:12;94998.66;;;6.98;47.06
56831;BME280;42713;42.676;23.352;2023-04-28T00:22:38;94993.28;;;6.93;47.12
56831;BME280;42713;42.676;23.352;2023-04-28T00:25:05;95004.06;;;6.96;47.02
56831;BME280;42713;42.676;23.352;2023-04-28T00:27:32;95003.91;;;6.91;47.19
56831;BME280;42713;42.676;23.352;2023-04-28T00:29:57;95005.00;;;6.77;47.10
56831;BME280;42713;42.676;23.352;2023-04-28T00:32:23;94999.78;;;6.77;47.62
56831;BME280;42713;42.676;23.352;2023-04-28T00:34:48;95013.03;;;6.75;48.02
56831;BME280;42713;42.676;23.352;2023-04-28T00:37:14;95005.00;;;6.77;47.57
56831;BME280;42713;42.676;23.352;2023-04-28T00:39:39;95007.81;;;6.75;47.93
56831;BME280;42713;42.676;23.352;2023-04-28T00:42:06;95011.09;;;6.64;47.34
56831;BME280;42713;42.676;23.352;2023-04-28T00:44:31;95013.69;;;6.64;48.01
56831;BME280;42713;42.676;23.352;2023-04-28T00:46:58;95010.50;;;6.62;48.31
56831;BME280;42713;42.676;23.352;2023-04-28T00:49:24;95007.88;;;6.68;47.88
56831;BME280;42713;42.676;23.352;2023-04-28T00:51:50;95002.50;;;6.63;48.20
56831;BME280;42713;42.676;23.352;2023-04-28T00:54:15;95003.28;;;6.64;47.83
56831;BME280;42713;42.676;23.352;2023-04-28T00:56:42;95010.09;;;6.65;47.78
56831;BME280;42713;42.676;23.352;2023-04-28T00:59:09;95013.56;;;6.52;48.22
56831;BME280;42713;42.676;23.352;2023-04-28T01:01:34;95010.00;;;6.46;48.96
56831;BME280;42713;42.676;23.352;2023-04-28T01:04:01;95016.06;;;6.40;49.27
56831;BME280;42713;42.676;23.352;2023-04-28T01:06:27;95018.47;;;6.35;48.68
56831;BME280;42713;42.676;23.352;2023-04-28T01:08:54;95027.09;;;6.35;48.88
56831;BME280;42713;42.676;23.352;2023-04-28T01:11:20;95016.06;;;6.33;48.86
56831;BME280;42713;42.676;23.352;2023-04-28T01:13:45;95024.09;;;6.32;49.47
56831;BME280;42713;42.676;23.352;2023-04-28T01:16:11;95015.88;;;6.28;49.48
56831;BME280;42713;42.676;23.352;2023-04-28T01:18:37;95025.09;;;6.31;48.81
56831;BME280;42713;42.676;23.352;2023-04-28T01:21:06;95015.31;;;6.26;49.11
56831;BME280;42713;42.676;23.352;2023-04-28T01:23:31;95028.94;;;6.21;49.05
56831;BME280;42713;42.676;23.352;2023-04-28T01:25:57;95035.78;;;6.16;48.94
56831;BME280;42713;42.676;23.352;2023-04-28T01:28:23;95025.00;;;6.12;49.01
56831;BME280;42713;42.676;23.352;2023-04-28T01:30:48;95027.97;;;6.16;49.56
56831;BME280;42713;42.676;23.352;2023-04-28T01:33:14;95025.00;;;6.12;49.85
56831;BME280;42713;42.676;23.352;2023-04-28T01:35:39;95034.78;;;6.10;49.47
56831;BME280;42713;42.676;23.352;2023-04-28T01:38:05;95030.59;;;6.09;49.39
56831;BME280;42713;42.676;23.352;2023-04-28T01:40:31;95027.19;;;6.08;49.83
56831;BME280;42713;42.676;23.352;2023-04-28T01:42:56;95028.00;;;6.09;48.98
56831;BME280;42713;42.676;23.352;2023-04-28T01:45:22;95027.59;;;6.12;49.20
56831;BME280;42713;42.676;23.352;2023-04-28T01:47:47;95018.22;;;6.04;48.79
56831;BME280;42713;42.676;23.352;2023-04-28T01:50:13;95029.00;;;6.08;49.48
56831;BME280;42713;42.676;23.352;2023-04-28T01:52:38;95029.59;;;6.10;48.78
56831;BME280;42713;42.676;23.352;2023-04-28T01:55:05;95027.78;;;6.04;49.12
56831;BME280;42713;42.676;23.352;2023-04-28T01:57:32;95033.00;;;6.04;48.76
56831;BME280;42713;42.676;23.352;2023-04-28T01:59:59;95025.00;;;6.05;49.36
56831;BME280;42713;42.676;23.352;2023-04-28T02:02:25;95022.00;;;5.95;49.04
56831;BME280;42713;42.676;23.352;2023-04-28T02:04:50;95029.81;;;6.02;48.67
56831;BME280;42713;42.676;23.352;2023-04-28T02:07:16;95027.78;;;6.04;49.11
56831;BME280;42713;42.676;23.352;2023-04-28T02:09:41;95035.22;;;6.00;48.81
56831;BME280;42713;42.676;23.352;2023-04-28T02:12:07;95025.81;;;5.99;48.57
56831;BME280;42713;42.676;23.352;2023-04-28T02:14:32;95035.41;;;5.92;49.55
56831;BME280;42713;42.676;23.352;2023-04-28T02:16:58;95032.44;;;5.88;49.38
56831;BME280;42713;42.676;23.352;2023-04-28T02:19:24;95039.63;;;5.86;48.80
56831;BME280;42713;42.676;23.352;2023-04-28T02:21:49;95046.03;;;5.84;48.84
56831;BME280;42713;42.676;23.352;2023-04-28T02:24:15;95048.03;;;5.82;49.20
56831;BME280;42713;42.676;23.352;2023-04-28T02:26:40;95044.44;;;5.76;50.00
56831;BME280;42713;42.676;23.352;2023-04-28T02:29:06;95044.88;;;5.73;49.28
56831;BME280;42713;42.676;23.352;2023-04-28T02:31:32;95047.88;;;5.70;50.23
56831;BME280;42713;42.676;23.352;2023-04-28T02:33:58;95053.84;;;5.70;50.06
56831;BME280;42713;42.676;23.352;2023-04-28T02:36:23;95043.88;;;5.67;49.96
56831;BME280;42713;42.676;23.352;2023-04-28T02:38:49;95048.25;;;5.67;50.18
56831;BME280;42713;42.676;23.352;2023-04-28T02:41:14;95052.69;;;5.66;49.58
56831;BME280;42713;42.676;23.352;2023-04-28T02:43:40;95058.66;;;5.67;49.70
56831;BME280;42713;42.676;23.352;2023-04-28T02:46:06;95053.28;;;5.61;49.99
56831;BME280;42713;42.676;23.352;2023-04-28T02:48:32;95054.28;;;5.60;50.10
56831;BME280;42713;42.676;23.352;2023-04-28T02:51:01;95061.25;;;5.60;49.83
56831;BME280;42713;42.676;23.352;2023-04-28T02:53:27;95062.66;;;5.69;49.79
56831;BME280;42713;42.676;23.352;2023-04-28T02:55:52;95063.66;;;5.68;49.79
56831;BME280;42713;42.676;23.352;2023-04-28T02:58:18;95064.47;;;5.69;50.31
56831;BME280;42713;42.676;23.352;2023-04-28T03:00:44;95065.47;;;5.68;50.25
56831;BME280;42713;42.676;23.352;2023-04-28T03:03:09;95069.06;;;5.67;49.59
56831;BME280;42713;42.676;23.352;2023-04-28T03:05:35;95065.84;;;5.65;50.25
56831;BME280;42713;42.676;23.352;2023-04-28T03:08:00;95072.66;;;5.66;49.75
56831;BME280;42713;42.676;23.352;2023-04-28T03:10:26;95072.09;;;5.57;49.98
56831;BME280;42713;42.676;23.352;2023-04-28T03:12:52;95075.47;;;5.57;50.59
56831;BME280;42713;42.676;23.352;2023-04-28T03:15:17;95067.06;;;5.55;50.04
56831;BME280;42713;42.676;23.352;2023-04-28T03:17:44;95074.28;;;5.53;49.83
56831;BME280;42713;42.676;23.352;2023-04-28T03:20:10;95065.06;;;5.57;50.43
56831;BME280;42713;42.676;23.352;2023-04-28T03:22:35;95074.47;;;5.58;49.83
56831;BME280;42713;42.676;23.352;2023-04-28T03:25:01;95079.28;;;5.55;50.04
56831;BME280;42713;42.676;23.352;2023-04-28T03:27:27;95078.88;;;5.58;49.83
56831;BME280;42713;42.676;23.352;2023-04-28T03:29:53;95089.06;;;5.59;49.84
56831;BME280;42713;42.676;23.352;2023-04-28T03:32:19;95099.44;;;5.59;49.75
56831;BME280;42713;42.676;23.352;2023-04-28T03:34:44;95094.25;;;5.66;50.16
56831;BME280;42713;42.676;23.352;2023-04-28T03:37:10;95104.25;;;5.56;50.14
56831;BME280;42713;42.676;23.352;2023-04-28T03:39:35;95105.47;;;5.47;50.20
56831;BME280;42713;42.676;23.352;2023-04-28T03:42:02;95105.03;;;5.50;49.85
56831;BME280;42713;42.676;23.352;2023-04-28T03:44:28;95105.03;;;5.50;49.62
56831;BME280;42713;42.676;23.352;2023-04-28T03:46:53;95124.22;;;5.49;49.55
56831;BME280;42713;42.676;23.352;2023-04-28T03:49:18;95125.84;;;5.43;49.71
56831;BME280;42713;42.676;23.352;2023-04-28T03:51:44;95119.84;;;5.42;50.09
56831;BME280;42713;42.676;23.352;2023-04-28T03:54:11;95128.84;;;5.40;50.06
56831;BME280;42713;42.676;23.352;2023-04-28T03:56:36;95130.03;;;5.37;49.40
56831;BME280;42713;42.676;23.352;2023-04-28T03:59:02;95134.22;;;5.32;49.82
56831;BME280;42713;42.676;23.352;2023-04-28T04:01:27;95136.63;;;5.33;50.28
56831;BME280;42713;42.676;23.352;2023-04-28T04:03:53;95149.41;;;5.41;49.92
56831;BME280;42713;42.676;23.352;2023-04-28T04:06:18;95145.03;;;5.42;49.87
56831;BME280;42713;42.676;23.352;2023-04-28T04:08:45;95150.63;;;5.39;49.05
56831;BME280;42713;42.676;23.352;2023-04-28T04:11:10;95147.22;;;5.38;49.86
56831;BME280;42713;42.676;23.352;2023-04-28T04:13:36;95146.03;;;5.41;49.88
56831;BME280;42713;42.676;23.352;2023-04-28T04:16:01;95152.63;;;5.43;49.59
56831;BME280;42713;42.676;23.352;2023-04-28T04:18:27;95150.22;;;5.49;49.31
56831;BME280;42713;42.676;23.352;2023-04-28T04:20:53;95150.81;;;5.51;49.11
56831;BME280;42713;42.676;23.352;2023-04-28T04:23:20;95160.59;;;5.55;49.41
56831;BME280;42713;42.676;23.352;2023-04-28T04:25:46;95162.81;;;5.52;49.28
56831;BME280;42713;42.676;23.352;2023-04-28T04:28:12;95168.22;;;5.57;49.22
56831;BME280;42713;42.676;23.352;2023-04-28T04:30:37;95155.81;;;5.52;49.22
56831;BME280;42713;42.676;23.352;2023-04-28T04:33:03;95162.59;;;5.60;49.15
56831;BME280;42713;42.676;23.352;2023-04-28T04:35:28;95164.44;;;5.66;49.53
56831;BME280;42713;42.676;23.352;2023-04-28T04:37:54;95164.81;;;5.56;49.04
56831;BME280;42713;42.676;23.352;2023-04-28T04:40:19;95170.81;;;5.57;49.18
56831;BME280;42713;42.676;23.352;2023-04-28T04:42:45;95173.19;;;5.52;49.08
56831;BME280;42713;42.676;23.352;2023-04-28T04:45:11;95171.41;;;5.52;48.93
56831;BME280;42713;42.676;23.352;2023-04-28T04:47:36;95175.78;;;5.52;49.64
56831;BME280;42713;42.676;23.352;2023-04-28T04:50:02;95173.81;;;5.54;49.37
56831;BME280;42713;42.676;23.352;2023-04-28T04:52:28;95184.38;;;5.59;49.55
56831;BME280;42713;42.676;23.352;2023-04-28T04:54:53;95179.59;;;5.56;49.40
56831;BME280;42713;42.676;23.352;2023-04-28T04:57:20;95189.41;;;5.60;49.11
56831;BME280;42713;42.676;23.352;2023-04-28T04:59:46;95185.59;;;5.56;48.71
56831;BME280;42713;42.676;23.352;2023-04-28T05:02:11;95194.38;;;5.49;48.16
56831;BME280;42713;42.676;23.352;2023-04-28T05:04:38;95199.19;;;5.52;49.63
56831;BME280;42713;42.676;23.352;2023-04-28T05:07:03;95202.59;;;5.52;49.33
56831;BME280;42713;42.676;23.352;2023-04-28T05:09:29;95193.00;;;5.53;48.92
56831;BME280;42713;42.676;23.352;2023-04-28T05:11:56;95193.78;;;5.60;49.74
56831;BME280;42713;42.676;23.352;2023-04-28T05:14:22;95191.41;;;5.72;49.04
56831;BME280;42713;42.676;23.352;2023-04-28T05:16:48;95197.63;;;5.78;48.91
56831;BME280;42713;42.676;23.352;2023-04-28T05:19:14;95191.81;;;5.82;49.59
56831;BME280;42713;42.676;23.352;2023-04-28T05:21:39;95196.41;;;5.87;49.44
56831;BME280;42713;42.676;23.352;2023-04-28T05:24:05;95198.81;;;5.95;49.13
56831;BME280;42713;42.676;23.352;2023-04-28T05:26:31;95189.00;;;5.90;48.77
56831;BME280;42713;42.676;23.352;2023-04-28T05:28:56;95196.59;;;5.85;48.38
56831;BME280;42713;42.676;23.352;2023-04-28T05:31:22;95193.81;;;5.87;48.92
56831;BME280;42713;42.676;23.352;2023-04-28T05:33:47;95198.00;;;5.95;49.32
56831;BME280;42713;42.676;23.352;2023-04-28T05:36:13;95194.22;;;5.97;49.22
56831;BME280;42713;42.676;23.352;2023-04-28T05:38:41;95181.03;;;6.05;49.09
56831;BME280;42713;42.676;23.352;2023-04-28T05:41:07;95188.00;;;6.05;48.94
56831;BME280;42713;42.676;23.352;2023-04-28T05:43:33;95186.22;;;6.12;48.61
56831;BME280;42713;42.676;23.352;2023-04-28T05:45:59;95198.03;;;6.15;48.75
56831;BME280;42713;42.676;23.352;2023-04-28T05:48:25;95189.00;;;6.17;49.03
56831;BME280;42713;42.676;23.352;2023-04-28T05:50:50;95205.22;;;6.26;49.36
56831;BME280;42713;42.676;23.352;2023-04-28T05:53:16;95190.00;;;6.23;48.75
56831;BME280;42713;42.676;23.352;2023-04-28T05:55:41;95196.81;;;6.24;49.09
56831;BME280;42713;42.676;23.352;2023-04-28T05:58:07;95198.81;;;6.15;48.26
56831;BME280;42713;42.676;23.352;2023-04-28T06:00:33;95190.81;;;6.10;48.82
56831;BME280;42713;42.676;23.352;2023-04-28T06:02:59;95208.44;;;6.08;48.26
56831;BME280;42713;42.676;23.352;2023-04-28T06:05:25;95193.03;;;6.06;48.58
56831;BME280;42713;42.676;23.352;2023-04-28T06:07:51;95202.22;;;6.09;47.93
56831;BME280;42713;42.676;23.352;2023-04-28T06:10:18;95199.81;;;6.07;48.87
56831;BME280;42713;42.676;23.352;2023-04-28T06:12:44;95195.22;;;6.10;48.70
56831;BME280;42713;42.676;23.352;2023-04-28T06:15:10;95188.22;;;6.10;48.62
56831;BME280;42713;42.676;23.352;2023-04-28T06:17:37;95190.41;;;6.20;49.44
56831;BME280;42713;42.676;23.352;2023-04-28T06:20:03;95194.97;;;6.31;49.43
56831;BME280;42713;42.676;23.352;2023-04-28T06:22:29;95199.56;;;6.36;48.98
56831;BME280;42713;42.676;23.352;2023-04-28T06:24:55;95196.56;;;6.39;48.11
56831;BME280;42713;42.676;23.352;2023-04-28T06:27:21;95199.16;;;6.46;48.05
56831;BME280;42713;42.676;23.352;2023-04-28T06:29:46;95198.75;;;6.49;48.08
56831;BME280;42713;42.676;23.352;2023-04-28T06:32:12;95198.56;;;6.50;48.13
56831;BME280;42713;42.676;23.352;2023-04-28T06:34:37;95194.75;;;6.53;47.47
56831;BME280;42713;42.676;23.352;2023-04-28T06:37:03;95192.91;;;6.60;49.71
56831;BME280;42713;42.676;23.352;2023-04-28T06:39:28;95197.69;;;6.70;53.88
56831;BME280;42713;42.676;23.352;2023-04-28T06:41:54;95192.41;;;6.83;54.52
56831;BME280;42713;42.676;23.352;2023-04-28T06:44:20;95183.22;;;6.81;51.28
56831;BME280;42713;42.676;23.352;2023-04-28T06:46:45;95184.22;;;6.87;53.79
56831;BME280;42713;42.676;23.352;2023-04-28T06:49:11;95197.88;;;6.75;52.18
56831;BME280;42713;42.676;23.352;2023-04-28T06:51:36;95185.50;;;6.57;52.31
56831;BME280;42713;42.676;23.352;2023-04-28T06:54:02;95196.97;;;6.49;53.41
56831;BME280;42713;42.676;23.352;2023-04-28T06:56:27;95188.16;;;6.50;53.93
56831;BME280;42713;42.676;23.352;2023-04-28T06:58:56;95190.91;;;6.62;54.60
56831;BME280;42713;42.676;23.352;2023-04-28T07:01:23;95197.72;;;6.63;53.02
56831;BME280;42713;42.676;23.352;2023-04-28T07:03:48;95191.91;;;6.54;53.12
56831;BME280;42713;42.676;23.352;2023-04-28T07:06:14;95184.34;;;6.53;52.71
56831;BME280;42713;42.676;23.352;2023-04-28T07:08:42;95193.09;;;6.65;53.30
56831;BME280;42713;42.676;23.352;2023-04-28T07:11:07;95200.69;;;6.74;51.59
56831;BME280;42713;42.676;23.352;2023-04-28T07:13:33;95188.47;;;6.67;48.95
56831;BME280;42713;42.676;23.352;2023-04-28T07:15:58;95189.09;;;6.63;51.66
56831;BME280;42713;42.676;23.352;2023-04-28T07:18:24;95181.31;;;6.56;50.13
56831;BME280;42713;42.676;23.352;2023-04-28T07:20:50;95182.47;;;6.67;51.34
56831;BME280;42713;42.676;23.352;2023-04-28T07:23:15;95195.25;;;6.75;49.79
56831;BME280;42713;42.676;23.352;2023-04-28T07:25:41;95202.66;;;6.85;51.08
56831;BME280;42713;42.676;23.352;2023-04-28T07:28:07;95179.84;;;6.80;47.70
56831;BME280;42713;42.676;23.352;2023-04-28T07:30:33;95185.38;;;6.91;49.46
56831;BME280;42713;42.676;23.352;2023-04-28T07:32:59;95168.34;;;6.95;49.14
56831;BME280;42713;42.676;23.352;2023-04-28T07:35:25;95170.28;;;7.06;51.60
56831;BME280;42713;42.676;23.352;2023-04-28T07:37:52;95175.66;;;7.11;47.87
56831;BME280;42713;42.676;23.352;2023-04-28T07:40:18;95190.88;;;7.14;52.69
56831;BME280;42713;42.676;23.352;2023-04-28T07:42:44;95181.66;;;7.19;51.45
56831;BME280;42713;42.676;23.352;2023-04-28T07:45:10;95188.88;;;7.16;48.10
56831;BME280;42713;42.676;23.352;2023-04-28T07:47:36;95189.47;;;7.19;49.21
56831;BME280;42713;42.676;23.352;2023-04-28T07:50:02;95179.06;;;7.19;49.11
56831;BME280;42713;42.676;23.352;2023-04-28T07:52:30;95174.97;;;7.29;47.64
56831;BME280;42713;42.676;23.352;2023-04-28T07:54:56;95170.34;;;7.31;54.82
56831;BME280;42713;42.676;23.352;2023-04-28T07:57:21;95170.88;;;7.40;48.44
56831;BME280;42713;42.676;23.352;2023-04-28T07:59:47;95168.03;;;7.48;49.56
56831;BME280;42713;42.676;23.352;2023-04-28T08:02:13;95165.00;;;7.52;44.60
56831;BME280;42713;42.676;23.352;2023-04-28T08:04:39;95182.41;;;7.58;48.58
56831;BME280;42713;42.676;23.352;2023-04-28T08:07:05;95181.19;;;7.60;46.35
56831;BME280;42713;42.676;23.352;2023-04-28T08:09:31;95171.72;;;7.66;46.79
56831;BME280;42713;42.676;23.352;2023-04-28T08:11:57;95172.09;;;7.70;44.57
56831;BME280;42713;42.676;23.352;2023-04-28T08:14:23;95181.84;;;7.81;48.61
56831;BME280;42713;42.676;23.352;2023-04-28T08:16:49;95177.22;;;7.83;48.26
56831;BME280;42713;42.676;23.352;2023-04-28T08:19:15;95172.94;;;7.89;48.46
56831;BME280;42713;42.676;23.352;2023-04-28T08:21:41;95172.09;;;7.95;48.44
56831;BME280;42713;42.676;23.352;2023-04-28T08:24:06;95169.56;;;8.07;49.26
56831;BME280;42713;42.676;23.352;2023-04-28T08:26:33;95177.34;;;8.14;47.24
56831;BME280;42713;42.676;23.352;2023-04-28T08:28:58;95174.69;;;8.20;50.94
56831;BME280;42713;42.676;23.352;2023-04-28T08:31:24;95168.44;;;8.21;47.71
56831;BME280;42713;42.676;23.352;2023-04-28T08:33:49;95160.47;;;8.35;44.32
56831;BME280;42713;42.676;23.352;2023-04-28T08:36:16;95162.66;;;8.38;45.21
56831;BME280;42713;42.676;23.352;2023-04-28T08:38:43;95168.97;;;8.49;44.02
56831;BME280;42713;42.676;23.352;2023-04-28T08:41:09;95160.72;;;8.52;44.38
56831;BME280;42713;42.676;23.352;2023-04-28T08:43:36;95158.91;;;8.52;44.08
56831;BME280;42713;42.676;23.352;2023-04-28T08:46:05;95154.19;;;8.61;46.11
56831;BME280;42713;42.676;23.352;2023-04-28T08:48:41;95151.44;;;8.75;44.60
56831;BME280;42713;42.676;23.352;2023-04-28T08:51:08;95151.44;;;8.75;44.99
56831;BME280;42713;42.676;23.352;2023-04-28T08:53:37;95149.31;;;8.83;47.35
56831;BME280;42713;42.676;23.352;2023-04-28T08:56:05;95146.97;;;8.94;46.61
56831;BME280;42713;42.676;23.352;2023-04-28T08:58:34;95146.88;;;9.00;46.95
56831;BME280;42713;42.676;23.352;2023-04-28T09:01:00;95145.44;;;9.05;44.30
56831;BME280;42713;42.676;23.352;2023-04-28T09:03:30;95144.19;;;9.07;41.43
56831;BME280;42713;42.676;23.352;2023-04-28T09:05:57;95152.59;;;9.09;45.06
56831;BME280;42713;42.676;23.352;2023-04-28T09:08:22;95147.84;;;9.18;46.07
56831;BME280;42713;42.676;23.352;2023-04-28T09:11:04;95145.38;;;9.23;41.81
56831;BME280;42713;42.676;23.352;2023-04-28T09:13:31;95144.25;;;9.31;39.77
56831;BME280;42713;42.676;23.352;2023-04-28T09:16:01;95141.50;;;9.26;40.61
56831;BME280;42713;42.676;23.352;2023-04-28T09:18:30;95140.81;;;9.18;41.08
56831;BME280;42713;42.676;23.352;2023-04-28T09:21:06;95122.88;;;9.22;41.49
56831;BME280;42713;42.676;23.352;2023-04-28T09:23:32;95128.22;;;9.27;42.82
56831;BME280;42713;42.676;23.352;2023-04-28T09:26:02;95124.25;;;9.37;41.56
56831;BME280;42713;42.676;23.352;2023-04-28T09:28:29;95116.56;;;9.54;41.43
56831;BME280;42713;42.676;23.352;2023-04-28T09:30:55;95125.09;;;9.61;39.63
56831;BME280;42713;42.676;23.352;2023-04-28T09:33:21;95117.63;;;9.64;40.38
56831;BME280;42713;42.676;23.352;2023-04-28T09:35:47;95115.34;;;9.68;40.29
56831;BME280;42713;42.676;23.352;2023-04-28T09:38:16;95104.09;;;9.79;38.95
56831;BME280;42713;42.676;23.352;2023-04-28T09:45:48;95105.19;;;9.95;39.85
56831;BME280;42713;42.676;23.352;2023-04-28T09:48:14;95096.34;;;9.96;39.01
56831;BME280;42713;42.676;23.352;2023-04-28T09:50:39;95098.47;;;10.11;38.91
56831;BME280;42713;42.676;23.352;2023-04-28T09:53:10;95098.50;;;10.23;39.61
56831;BME280;42713;42.676;23.352;2023-04-28T09:55:42;95092.66;;;10.33;39.32
56831;BME280;42713;42.676;23.352;2023-04-28T09:58:10;95092.97;;;10.37;37.20
56831;BME280;42713;42.676;23.352;2023-04-28T10:00:38;95091.63;;;10.34;35.92
56831;BME280;42713;42.676;23.352;2023-04-28T10:03:06;95080.72;;;10.37;35.72
56831;BME280;42713;42.676;23.352;2023-04-28T10:05:34;95074.22;;;10.40;36.91
56831;BME280;42713;42.676;23.352;2023-04-28T10:08:01;95074.09;;;10.47;36.76
56831;BME280;42713;42.676;23.352;2023-04-28T10:10:27;95069.97;;;10.51;35.61
56831;BME280;42713;42.676;23.352;2023-04-28T10:12:55;95065.97;;;10.60;36.00
56831;BME280;42713;42.676;23.352;2023-04-28T10:15:22;95069.78;;;10.69;35.57
56831;BME280;42713;42.676;23.352;2023-04-28T10:17:49;95072.28;;;10.76;36.52
56831;BME280;42713;42.676;23.352;2023-04-28T10:20:15;95063.25;;;10.84;36.68
56831;BME280;42713;42.676;23.352;2023-04-28T10:25:47;95061.31;;;11.08;34.58
56831;BME280;42713;42.676;23.352;2023-04-28T10:28:14;95053.63;;;11.18;35.03
56831;BME280;42713;42.676;23.352;2023-04-28T10:30:40;95057.72;;;11.14;34.29
56831;BME280;42713;42.676;23.352;2023-04-28T10:38:13;95050.59;;;11.27;33.97
56831;BME280;42713;42.676;23.352;2023-04-28T10:40:43;95049.31;;;11.29;33.98
56831;BME280;42713;42.676;23.352;2023-04-28T10:43:13;95042.25;;;11.30;33.91
56831;BME280;42713;42.676;23.352;2023-04-28T10:56:10;95023.81;;;11.42;33.29
56831;BME280;42713;42.676;23.352;2023-04-28T10:58:37;95024.44;;;11.49;32.78
56831;BME280;42713;42.676;23.352;2023-04-28T11:16:57;94998.69;;;12.52;30.83
56831;BME280;42713;42.676;23.352;2023-04-28T11:21:59;95002.47;;;12.88;29.85
56831;BME280;42713;42.676;23.352;2023-04-28T11:24:26;95002.34;;;13.05;29.82
56831;BME280;42713;42.676;23.352;2023-04-28T11:26:53;95001.75;;;12.98;29.88
56831;BME280;42713;42.676;23.352;2023-04-28T11:29:33;94999.19;;;13.03;28.58
56831;BME280;42713;42.676;23.352;2023-04-28T11:31:59;94998.59;;;12.96;28.59
56831;BME280;42713;42.676;23.352;2023-04-28T11:34:25;94988.88;;;12.97;29.22
56831;BME280;42713;42.676;23.352;2023-04-28T11:36:51;94989.75;;;13.07;29.91
56831;BME280;42713;42.676;23.352;2023-04-28T11:39:24;94983.28;;;13.20;30.09
56831;BME280;42713;42.676;23.352;2023-04-28T11:41:52;94982.03;;;13.33;30.14
56831;BME280;42713;42.676;23.352;2023-04-28T11:44:20;94981.88;;;13.45;31.13
56831;BME280;42713;42.676;23.352;2023-04-28T11:46:54;94979.59;;;13.59;29.71
56831;BME280;42713;42.676;23.352;2023-04-28T11:49:40;94975.72;;;13.72;29.45
56831;BME280;42713;42.676;23.352;2023-04-28T11:52:07;94971.31;;;13.88;30.01
56831;BME280;42713;42.676;23.352;2023-04-28T11:54:32;94970.88;;;14.07;29.51
56831;BME280;42713;42.676;23.352;2023-04-28T11:56:58;94955.91;;;14.18;28.38
56831;BME280;42713;42.676;23.352;2023-04-28T11:59:32;94969.84;;;14.18;28.01
56831;BME280;42713;42.676;23.352;2023-04-28T12:02:00;94965.41;;;14.24;29.04
56831;BME280;42713;42.676;23.352;2023-04-28T12:04:39;94962.22;;;14.16;27.62
56831;BME280;42713;42.676;23.352;2023-04-28T12:09:39;94970.63;;;14.08;27.33
56831;BME280;42713;42.676;23.352;2023-04-28T12:12:08;94957.47;;;14.13;28.17
56831;BME280;42713;42.676;23.352;2023-04-28T12:15:12;94952.00;;;14.41;28.62
56831;BME280;42713;42.676;23.352;2023-04-28T12:17:40;94952.03;;;14.51;28.40
56831;BME280;42713;42.676;23.352;2023-04-28T12:22:46;94932.59;;;14.73;28.63
56831;BME280;42713;42.676;23.352;2023-04-28T12:25:14;94938.94;;;14.82;28.70
56831;BME280;42713;42.676;23.352;2023-04-28T12:27:44;94934.16;;;15.05;28.96
56831;BME280;42713;42.676;23.352;2023-04-28T12:32:48;94925.69;;;15.23;28.13
56831;BME280;42713;42.676;23.352;2023-04-28T12:35:13;94928.56;;;15.48;28.65
56831;BME280;42713;42.676;23.352;2023-04-28T12:37:43;94926.19;;;15.46;27.32
56831;BME280;42713;42.676;23.352;2023-04-28T12:40:09;94921.97;;;15.50;27.77
56831;BME280;42713;42.676;23.352;2023-04-28T12:42:35;94919.75;;;15.78;27.47
56831;BME280;42713;42.676;23.352;2023-04-28T12:45:01;94912.56;;;15.99;27.84
56831;BME280;42713;42.676;23.352;2023-04-28T12:47:26;94910.25;;;16.38;27.28
56831;BME280;42713;42.676;23.352;2023-04-28T12:49:52;94919.84;;;16.68;26.16
56831;BME280;42713;42.676;23.352;2023-04-28T12:52:19;94915.41;;;16.98;25.34
56831;BME280;42713;42.676;23.352;2023-04-28T12:54:45;94893.50;;;17.46;25.62
56831;BME280;42713;42.676;23.352;2023-04-28T12:57:14;94898.78;;;17.70;25.43
56831;BME280;42713;42.676;23.352;2023-04-28T12:59:40;94888.03;;;18.10;25.88
56831;BME280;42713;42.676;23.352;2023-04-28T13:02:06;94890.78;;;18.57;24.70
56831;BME280;42713;42.676;23.352;2023-04-28T13:04:31;94891.03;;;18.61;24.58
56831;BME280;42713;42.676;23.352;2023-04-28T13:06:57;94878.34;;;18.58;24.75
56831;BME280;42713;42.676;23.352;2023-04-28T13:09:23;94879.66;;;18.74;24.11
56831;BME280;42713;42.676;23.352;2023-04-28T13:11:49;94877.97;;;18.97;24.50
56831;BME280;42713;42.676;23.352;2023-04-28T13:14:18;94870.03;;;18.97;23.40
56831;BME280;42713;42.676;23.352;2023-04-28T13:16:44;94874.25;;;18.98;23.91
56831;BME280;42713;42.676;23.352;2023-04-28T13:19:09;94882.88;;;19.23;23.44
56831;BME280;42713;42.676;23.352;2023-04-28T13:21:38;94877.34;;;18.87;23.14
56831;BME280;42713;42.676;23.352;2023-04-28T13:24:06;94872.34;;;19.32;23.67
56831;BME280;42713;42.676;23.352;2023-04-28T13:26:35;94879.53;;;19.46;22.67
56831;BME280;42713;42.676;23.352;2023-04-28T13:29:02;94886.44;;;19.88;22.19
56831;BME280;42713;42.676;23.352;2023-04-28T13:31:28;94874.03;;;19.56;22.44
56831;BME280;42713;42.676;23.352;2023-04-28T13:33:57;94867.50;;;20.18;22.73
56831;BME280;42713;42.676;23.352;2023-04-28T13:36:22;94870.25;;;20.13;22.37
56831;BME280;42713;42.676;23.352;2023-04-28T13:38:48;94856.81;;;19.53;23.44
56831;BME280;42713;42.676;23.352;2023-04-28T13:41:15;94861.53;;;19.98;23.41
56831;BME280;42713;42.676;23.352;2023-04-28T13:43:41;94867.25;;;19.64;22.88